createdAt,value
2023-04-27T00:00:43.326Z,97.20
2023-04-27T00:01:43.328Z,96.83
2023-04-27T00:02:43.458Z,98.37
2023-04-27T00:03:43.374Z,98.88
2023-04-27T00:04:43.365Z,97.75
2023-04-27T00:05:43.320Z,98.27
2023-04-27T00:06:43.161Z,98.58
2023-04-27T00:07:43.145Z,97.60
2023-04-27T00:08:43.120Z,99.03
2023-04-27T00:09:43.078Z,98.52
2023-04-27T00:10:43.055Z,98.00
2023-04-27T00:11:43.040Z,97.03
2023-04-27T00:12:42.997Z,98.46
2023-04-27T00:13:42.996Z,98.11
2023-04-27T00:14:42.944Z,98.32
2023-04-27T00:15:42.917Z,97.39
2023-04-27T00:16:42.976Z,96.78
2023-04-27T00:17:42.882Z,97.49
2023-04-27T00:18:42.842Z,97.49
2023-04-27T00:19:42.808Z,97.49
2023-04-27T00:20:42.778Z,97.49
2023-04-27T00:21:42.751Z,97.19
2023-04-27T00:22:42.720Z,96.98
2023-04-27T00:23:42.698Z,96.78
2023-04-27T00:24:42.668Z,96.57
2023-04-27T00:25:42.640Z,96.98
2023-04-27T00:26:42.615Z,98.52
2023-04-27T00:27:42.587Z,98.32
2023-04-27T00:28:42.558Z,98.32
2023-04-27T00:29:42.572Z,98.11
2023-04-27T00:30:42.501Z,98.62
2023-04-27T00:31:42.516Z,98.42
2023-04-27T00:32:42.552Z,98.42
2023-04-27T00:33:42.422Z,98.62
2023-04-27T00:34:42.407Z,99.44
2023-04-27T00:35:42.363Z,99.13
2023-04-27T00:36:42.337Z,98.68
2023-04-27T00:37:42.309Z,98.32
2023-04-27T00:38:42.295Z,98.47
2023-04-27T00:39:42.257Z,97.49
2023-04-27T00:40:42.226Z,96.88
2023-04-27T00:41:42.204Z,96.98
2023-04-27T00:42:42.170Z,97.29
2023-04-27T00:43:42.144Z,97.29
2023-04-27T00:44:42.118Z,97.08
2023-04-27T00:45:42.140Z,96.88
2023-04-27T00:46:42.059Z,97.19
2023-04-27T00:47:42.081Z,96.78
2023-04-27T00:48:42.003Z,96.98
2023-04-27T00:49:41.977Z,96.20
2023-04-27T00:50:41.952Z,96.67
2023-04-27T00:51:41.922Z,96.88
2023-04-27T00:52:41.894Z,96.88
2023-04-27T00:53:41.871Z,97.19
2023-04-27T00:54:41.845Z,97.08
2023-04-27T00:55:41.812Z,97.19
2023-04-27T00:56:41.782Z,96.98
2023-04-27T00:57:41.756Z,96.72
2023-04-27T00:58:41.726Z,96.92
2023-04-27T00:59:41.710Z,96.62
2023-04-27T01:00:41.670Z,97.19
2023-04-27T01:01:41.840Z,96.06
2023-04-27T01:02:41.855Z,95.86
2023-04-27T01:03:41.758Z,96.88
2023-04-27T01:04:41.624Z,96.47
2023-04-27T01:05:41.538Z,96.26
2023-04-27T01:06:41.504Z,96.88
2023-04-27T01:07:41.480Z,97.49
2023-04-27T01:08:41.458Z,97.60
2023-04-27T01:09:41.428Z,97.39
2023-04-27T01:10:41.397Z,97.39
2023-04-27T01:11:41.367Z,97.60
2023-04-27T01:12:41.350Z,98.11
2023-04-27T01:13:41.315Z,98.42
2023-04-27T01:14:41.288Z,98.00
2023-04-27T01:15:41.264Z,98.21
2023-04-27T01:16:41.251Z,98.58
2023-04-27T01:17:41.281Z,98.42
2023-04-27T01:18:41.173Z,97.80
2023-04-27T01:19:41.233Z,98.00
2023-04-27T01:20:41.118Z,97.80
2023-04-27T01:21:41.093Z,98.62
2023-04-27T01:22:41.064Z,97.70
2023-04-27T01:23:41.037Z,98.37
2023-04-27T01:24:41.006Z,98.42
2023-04-27T01:25:40.981Z,98.32
2023-04-27T01:26:40.960Z,98.21
2023-04-27T01:27:40.926Z,99.54
2023-04-27T01:28:40.900Z,99.19
2023-04-27T01:29:40.877Z,99.75
2023-04-27T01:30:40.843Z,99.09
2023-04-27T01:31:40.908Z,99.29
2023-04-27T01:32:40.830Z,98.62
2023-04-27T01:33:40.890Z,99.19
2023-04-27T01:34:40.730Z,98.72
2023-04-27T01:35:40.705Z,99.03
2023-04-27T01:36:40.677Z,99.40
2023-04-27T01:37:40.653Z,99.13
2023-04-27T01:38:40.624Z,99.13
2023-04-27T01:39:40.598Z,99.54
2023-04-27T01:40:40.570Z,99.44
2023-04-27T01:41:40.542Z,98.83
2023-04-27T01:42:40.515Z,99.44
2023-04-27T01:43:40.488Z,99.99
2023-04-27T01:44:40.469Z,99.99
2023-04-27T01:45:40.433Z,98.93
2023-04-27T01:46:40.514Z,99.99
2023-04-27T01:47:40.393Z,99.75
2023-04-27T01:48:40.359Z,98.83
2023-04-27T01:49:40.346Z,99.44
2023-04-27T01:50:40.296Z,99.44
2023-04-27T01:51:40.274Z,99.99
2023-04-27T01:52:40.244Z,99.99
2023-04-27T01:53:40.216Z,99.90
2023-04-27T01:54:40.185Z,99.38
2023-04-27T01:55:40.160Z,99.69
2023-04-27T01:56:40.129Z,99.99
2023-04-27T01:57:40.102Z,99.59
2023-04-27T01:58:40.086Z,99.99
2023-04-27T01:59:40.053Z,99.69
2023-04-27T02:00:40.024Z,99.99
2023-04-27T02:01:40.011Z,99.99
2023-04-27T02:02:40.124Z,99.99
2023-04-27T02:03:40.192Z,99.99
2023-04-27T02:04:40.021Z,99.99
2023-04-27T02:05:39.903Z,99.99
2023-04-27T02:06:39.854Z,99.99
2023-04-27T02:07:39.828Z,99.99
2023-04-27T02:08:39.799Z,99.99
2023-04-27T02:09:39.774Z,99.99
2023-04-27T02:10:39.748Z,99.99
2023-04-27T02:11:39.716Z,99.99
2023-04-27T02:12:39.692Z,99.99
2023-04-27T02:13:39.661Z,99.99
2023-04-27T02:14:39.630Z,99.99
2023-04-27T02:15:39.601Z,99.99
2023-04-27T02:16:39.653Z,99.99
2023-04-27T02:17:39.628Z,99.99
2023-04-27T02:18:39.519Z,99.99
2023-04-27T02:19:39.497Z,99.99
2023-04-27T02:20:39.465Z,99.99
2023-04-27T02:21:39.459Z,99.99
2023-04-27T02:22:39.407Z,99.99
2023-04-27T02:23:39.383Z,99.99
2023-04-27T02:24:39.356Z,99.99
2023-04-27T02:25:39.325Z,99.99
2023-04-27T02:26:39.297Z,99.99
2023-04-27T02:27:39.270Z,99.99
2023-04-27T02:28:39.238Z,99.99
2023-04-27T02:29:39.470Z,99.99
2023-04-27T02:30:39.184Z,99.99
2023-04-27T02:31:39.223Z,99.99
2023-04-27T02:32:39.152Z,99.99
2023-04-27T02:33:39.602Z,99.99
2023-04-27T02:34:39.099Z,99.99
2023-04-27T02:35:39.052Z,99.99
2023-04-27T02:36:39.017Z,99.99
2023-04-27T02:37:39.070Z,99.99
2023-04-27T02:38:38.969Z,99.99
2023-04-27T02:39:38.940Z,99.99
2023-04-27T02:40:38.908Z,99.99
2023-04-27T02:41:38.879Z,99.99
2023-04-27T02:42:39.057Z,99.99
2023-04-27T02:43:38.824Z,99.99
2023-04-27T02:44:38.805Z,99.99
2023-04-27T02:45:38.767Z,99.99
2023-04-27T02:46:38.847Z,99.99
2023-04-27T02:47:38.769Z,99.99
2023-04-27T02:48:38.684Z,99.99
2023-04-27T02:49:38.669Z,99.99
2023-04-27T02:50:38.630Z,99.99
2023-04-27T02:51:38.608Z,99.99
2023-04-27T02:52:38.578Z,99.99
2023-04-27T02:53:38.562Z,99.99
2023-04-27T02:54:38.514Z,99.99
2023-04-27T02:55:38.539Z,99.99
2023-04-27T02:56:38.477Z,99.99
2023-04-27T02:57:38.436Z,99.99
2023-04-27T02:58:38.400Z,99.99
2023-04-27T02:59:38.375Z,99.99
2023-04-27T03:00:38.344Z,99.99
2023-04-27T03:01:38.456Z,99.99
2023-04-27T03:02:38.545Z,99.99
2023-04-27T03:03:38.373Z,99.99
2023-04-27T03:04:38.486Z,99.99
2023-04-27T03:05:38.208Z,99.99
2023-04-27T03:06:38.175Z,99.99
2023-04-27T03:07:38.151Z,99.99
2023-04-27T03:08:38.115Z,99.99
2023-04-27T03:09:38.115Z,99.99
2023-04-27T03:10:38.068Z,99.99
2023-04-27T03:11:38.036Z,99.99
2023-04-27T03:12:38.009Z,99.99
2023-04-27T03:13:37.980Z,99.99
2023-04-27T03:14:37.952Z,99.99
2023-04-27T03:15:37.930Z,99.99
2023-04-27T03:16:37.950Z,99.99
2023-04-27T03:17:37.872Z,99.99
2023-04-27T03:18:37.836Z,99.99
2023-04-27T03:19:37.809Z,99.99
2023-04-27T03:20:37.787Z,99.99
2023-04-27T03:21:37.749Z,99.99
2023-04-27T03:22:37.723Z,99.99
2023-04-27T03:23:37.699Z,99.99
2023-04-27T03:24:37.667Z,99.99
2023-04-27T03:25:37.662Z,99.99
2023-04-27T03:26:37.622Z,99.99
2023-04-27T03:27:37.590Z,99.99
2023-04-27T03:28:37.558Z,99.99
2023-04-27T03:29:37.528Z,99.99
2023-04-27T03:30:37.501Z,99.99
2023-04-27T03:31:37.499Z,99.99
2023-04-27T03:32:37.459Z,99.99
2023-04-27T03:33:37.421Z,99.99
2023-04-27T03:34:37.389Z,99.99
2023-04-27T03:35:37.362Z,99.99
2023-04-27T03:36:37.334Z,99.99
2023-04-27T03:37:37.305Z,99.99
2023-04-27T03:38:37.277Z,99.99
2023-04-27T03:39:37.258Z,99.99
2023-04-27T03:40:37.235Z,99.99
2023-04-27T03:41:37.216Z,99.99
2023-04-27T03:42:37.207Z,99.99
2023-04-27T03:43:37.166Z,99.99
2023-04-27T03:44:37.109Z,99.99
2023-04-27T03:45:37.194Z,99.99
2023-04-27T03:46:37.051Z,99.99
2023-04-27T03:47:37.145Z,99.99
2023-04-27T03:48:37.001Z,99.99
2023-04-27T03:49:36.967Z,99.99
2023-04-27T03:50:36.942Z,99.99
2023-04-27T03:51:36.914Z,99.99
2023-04-27T03:52:36.895Z,99.99
2023-04-27T03:53:36.875Z,99.99
2023-04-27T03:54:36.828Z,99.99
2023-04-27T03:55:36.802Z,99.99
2023-04-27T03:56:36.774Z,99.99
2023-04-27T03:57:36.768Z,99.99
2023-04-27T03:58:36.717Z,99.99
2023-04-27T03:59:36.689Z,99.99
2023-04-27T04:00:36.663Z,99.99
2023-04-27T04:01:36.629Z,99.99
2023-04-27T04:02:36.788Z,99.99
2023-04-27T04:03:36.716Z,99.99
2023-04-27T04:04:36.714Z,99.99
2023-04-27T04:05:36.520Z,99.99
2023-04-27T04:06:36.506Z,99.99
2023-04-27T04:07:36.470Z,99.99
2023-04-27T04:08:36.435Z,99.99
2023-04-27T04:09:36.431Z,99.99
2023-04-27T04:10:36.387Z,99.99
2023-04-27T04:11:36.353Z,99.99
2023-04-27T04:12:36.325Z,99.99
2023-04-27T04:13:36.317Z,99.99
2023-04-27T04:14:36.269Z,99.99
2023-04-27T04:15:36.261Z,99.99
2023-04-27T04:16:36.214Z,99.99
2023-04-27T04:17:36.192Z,99.99
2023-04-27T04:18:36.168Z,99.99
2023-04-27T04:19:36.128Z,99.99
2023-04-27T04:20:36.110Z,99.99
2023-04-27T04:21:36.072Z,99.99
2023-04-27T04:22:36.045Z,99.99
2023-04-27T04:23:36.035Z,99.99
2023-04-27T04:24:35.989Z,99.99
2023-04-27T04:25:35.960Z,99.99
2023-04-27T04:26:35.932Z,99.99
2023-04-27T04:27:35.903Z,99.99
2023-04-27T04:28:35.873Z,99.99
2023-04-27T04:29:35.867Z,99.99
2023-04-27T04:30:35.823Z,99.99
2023-04-27T04:31:35.836Z,99.99
2023-04-27T04:32:35.780Z,99.99
2023-04-27T04:33:35.733Z,99.99
2023-04-27T04:34:35.712Z,99.99
2023-04-27T04:35:35.679Z,99.99
2023-04-27T04:36:35.663Z,99.99
2023-04-27T04:37:35.629Z,99.99
2023-04-27T04:38:35.603Z,99.99
2023-04-27T04:39:35.567Z,99.99
2023-04-27T04:40:35.539Z,99.99
2023-04-27T04:41:35.506Z,99.99
2023-04-27T04:42:35.483Z,99.99
2023-04-27T04:43:35.454Z,99.99
2023-04-27T04:44:35.426Z,99.99
2023-04-27T04:45:35.416Z,99.99
2023-04-27T04:46:35.404Z,99.99
2023-04-27T04:47:35.411Z,99.99
2023-04-27T04:48:35.329Z,99.99
2023-04-27T04:49:35.287Z,99.99
2023-04-27T04:50:35.264Z,99.99
2023-04-27T04:51:35.227Z,99.99
2023-04-27T04:52:35.200Z,99.99
2023-04-27T04:53:35.180Z,99.99
2023-04-27T04:54:35.143Z,99.99
2023-04-27T04:55:35.116Z,99.99
2023-04-27T04:56:35.090Z,99.99
2023-04-27T04:57:35.066Z,99.99
2023-04-27T04:58:35.034Z,99.99
2023-04-27T04:59:35.004Z,99.99
2023-04-27T05:00:34.975Z,99.99
2023-04-27T05:01:34.993Z,99.99
2023-04-27T05:02:35.115Z,99.99
2023-04-27T05:03:35.186Z,99.99
2023-04-27T05:04:34.937Z,99.99
2023-04-27T05:05:34.841Z,99.99
2023-04-27T05:06:34.808Z,99.99
2023-04-27T05:07:34.785Z,99.99
2023-04-27T05:08:34.765Z,99.99
2023-04-27T05:09:34.726Z,99.99
2023-04-27T05:10:34.698Z,99.99
2023-04-27T05:11:34.669Z,99.99
2023-04-27T05:12:34.649Z,99.99
2023-04-27T05:13:34.613Z,99.99
2023-04-27T05:14:34.586Z,99.99
2023-04-27T05:15:34.557Z,99.99
2023-04-27T05:16:34.625Z,99.99
2023-04-27T05:17:34.552Z,99.99
2023-04-27T05:18:34.476Z,99.99
2023-04-27T05:19:34.446Z,99.99
2023-04-27T05:20:34.433Z,99.99
2023-04-27T05:21:34.390Z,99.99
2023-04-27T05:22:34.375Z,99.99
2023-04-27T05:23:34.340Z,99.99
2023-04-27T05:24:34.309Z,99.99
2023-04-27T05:25:34.277Z,99.99
2023-04-27T05:26:34.252Z,99.99
2023-04-27T05:27:34.224Z,99.99
2023-04-27T05:28:34.196Z,99.99
2023-04-27T05:29:34.169Z,99.99
2023-04-27T05:30:34.145Z,99.99
2023-04-27T05:31:34.162Z,99.99
2023-04-27T05:32:34.137Z,99.99
2023-04-27T05:33:34.075Z,99.99
2023-04-27T05:34:34.029Z,99.99
2023-04-27T05:35:34.028Z,99.99
2023-04-27T05:36:33.975Z,99.99
2023-04-27T05:37:33.946Z,99.99
2023-04-27T05:38:33.927Z,99.99
2023-04-27T05:39:33.901Z,99.99
2023-04-27T05:40:33.863Z,99.99
2023-04-27T05:41:33.838Z,99.99
2023-04-27T05:42:33.815Z,99.99
2023-04-27T05:43:33.786Z,99.96
2023-04-27T05:44:33.754Z,99.71
2023-04-27T05:45:33.811Z,99.91
2023-04-27T05:46:33.702Z,99.04
2023-04-27T05:47:33.718Z,99.99
2023-04-27T05:48:33.647Z,99.76
2023-04-27T05:49:33.660Z,99.99
2023-04-27T05:50:33.599Z,99.99
2023-04-27T05:51:33.562Z,99.30
2023-04-27T05:52:33.946Z,99.10
2023-04-27T05:53:33.515Z,99.99
2023-04-27T05:54:33.487Z,99.71
2023-04-27T05:55:33.455Z,99.91
2023-04-27T05:56:33.426Z,99.30
2023-04-27T05:57:33.401Z,99.10
2023-04-27T05:58:33.370Z,99.41
2023-04-27T05:59:33.344Z,99.91
2023-04-27T06:00:33.321Z,99.15
2023-04-27T06:01:33.295Z,99.87
2023-04-27T06:02:33.357Z,99.77
2023-04-27T06:03:33.416Z,99.05
2023-04-27T06:04:33.320Z,98.90
2023-04-27T06:05:33.446Z,98.19
2023-04-27T06:06:33.155Z,99.31
2023-04-27T06:07:33.128Z,98.60
2023-04-27T06:08:33.105Z,98.70
2023-04-27T06:09:33.072Z,99.31
2023-04-27T06:10:33.051Z,98.08
2023-04-27T06:11:33.020Z,97.47
2023-04-27T06:12:33.126Z,98.08
2023-04-27T06:13:32.966Z,97.88
2023-04-27T06:14:32.943Z,97.57
2023-04-27T06:15:32.955Z,97.74
2023-04-27T06:16:33.029Z,98.75
2023-04-27T06:17:32.873Z,97.88
2023-04-27T06:18:32.857Z,98.65
2023-04-27T06:19:32.809Z,98.45
2023-04-27T06:20:32.776Z,98.86
2023-04-27T06:21:32.787Z,97.22
2023-04-27T06:22:32.728Z,97.42
2023-04-27T06:23:32.703Z,98.10
2023-04-27T06:24:32.671Z,97.89
2023-04-27T06:25:32.641Z,98.71
2023-04-27T06:26:32.621Z,98.30
2023-04-27T06:27:32.587Z,97.53
2023-04-27T06:28:32.562Z,98.61
2023-04-27T06:29:32.552Z,99.02
2023-04-27T06:30:32.511Z,98.61
2023-04-27T06:31:32.492Z,96.56
2023-04-27T06:32:32.505Z,96.97
2023-04-27T06:33:32.450Z,97.44
2023-04-27T06:34:32.397Z,97.54
2023-04-27T06:35:32.376Z,96.47
2023-04-27T06:36:32.503Z,95.96
2023-04-27T06:37:32.721Z,94.53
2023-04-27T06:38:32.291Z,94.27
2023-04-27T06:39:32.267Z,94.78
2023-04-27T06:40:32.245Z,95.39
2023-04-27T06:41:32.211Z,94.98
2023-04-27T06:42:32.185Z,94.82
2023-04-27T06:43:32.160Z,96.15
2023-04-27T06:44:32.138Z,96.51
2023-04-27T06:45:32.112Z,97.54
2023-04-27T06:46:32.194Z,99.07
2023-04-27T06:47:32.049Z,98.72
2023-04-27T06:48:32.029Z,99.02
2023-04-27T06:49:32.005Z,98.27
2023-04-27T06:50:32.004Z,98.27
2023-04-27T06:51:31.953Z,96.58
2023-04-27T06:52:31.920Z,96.06
2023-04-27T06:53:31.919Z,95.65
2023-04-27T06:54:31.868Z,95.90
2023-04-27T06:55:31.864Z,97.74
2023-04-27T06:56:31.813Z,99.02
2023-04-27T06:57:31.788Z,99.64
2023-04-27T06:58:31.762Z,99.43
2023-04-27T06:59:31.735Z,98.77
2023-04-27T07:00:31.709Z,97.86
2023-04-27T07:01:31.717Z,97.50
2023-04-27T07:02:31.728Z,97.71
2023-04-27T07:03:31.850Z,96.38
2023-04-27T07:04:31.647Z,96.08
2023-04-27T07:05:31.573Z,96.59
2023-04-27T07:06:31.552Z,96.23
2023-04-27T07:07:31.524Z,96.54
2023-04-27T07:08:31.515Z,95.52
2023-04-27T07:09:31.837Z,95.93
2023-04-27T07:10:31.447Z,93.73
2023-04-27T07:11:31.433Z,95.26
2023-04-27T07:12:31.405Z,94.30
2023-04-27T07:13:31.370Z,93.69
2023-04-27T07:14:31.342Z,93.89
2023-04-27T07:15:31.341Z,94.65
2023-04-27T07:16:31.346Z,95.67
2023-04-27T07:17:31.380Z,96.14
2023-04-27T07:18:31.234Z,93.89
2023-04-27T07:19:31.211Z,91.55
2023-04-27T07:20:31.190Z,91.85
2023-04-27T07:21:31.158Z,92.97
2023-04-27T07:22:31.141Z,91.40
2023-04-27T07:23:31.115Z,90.94
2023-04-27T07:24:31.093Z,89.96
2023-04-27T07:25:31.076Z,89.25
2023-04-27T07:26:31.030Z,89.14
2023-04-27T07:27:31.003Z,90.12
2023-04-27T07:28:30.978Z,89.51
2023-04-27T07:29:31.293Z,89.06
2023-04-27T07:30:31.147Z,91.14
2023-04-27T07:31:30.949Z,91.69
2023-04-27T07:32:30.913Z,92.26
2023-04-27T07:33:30.850Z,91.85
2023-04-27T07:34:41.182Z,91.09
2023-04-27T07:35:30.798Z,89.94
2023-04-27T07:36:30.773Z,89.53
2023-04-27T07:37:30.750Z,88.67
2023-04-27T07:38:30.724Z,87.96
2023-04-27T07:39:30.698Z,88.57
2023-04-27T07:40:30.675Z,88.32
2023-04-27T07:41:30.675Z,89.18
2023-04-27T07:42:30.622Z,86.33
2023-04-27T07:43:30.592Z,85.66
2023-04-27T07:44:30.562Z,84.67
2023-04-27T07:45:30.562Z,87.29
2023-04-27T07:46:30.514Z,87.08
2023-04-27T07:47:30.489Z,82.40
2023-04-27T07:48:30.462Z,84.88
2023-04-27T07:49:30.449Z,81.11
2023-04-27T07:50:30.428Z,78.93
2023-04-27T07:51:30.400Z,77.20
2023-04-27T07:52:30.360Z,76.08
2023-04-27T07:53:30.335Z,75.78
2023-04-27T07:54:30.328Z,77.20
2023-04-27T07:55:30.285Z,73.40
2023-04-27T07:56:30.259Z,75.06
2023-04-27T07:57:30.253Z,73.91
2023-04-27T07:58:30.208Z,75.33
2023-04-27T07:59:30.179Z,79.00
2023-04-27T08:00:30.160Z,80.97
2023-04-27T08:01:30.131Z,82.26
2023-04-27T08:02:30.284Z,83.74
2023-04-27T08:03:30.233Z,80.73
2023-04-27T08:04:30.244Z,80.87
2023-04-27T08:05:30.716Z,81.48
2023-04-27T08:06:30.589Z,81.07
2023-04-27T08:07:30.263Z,81.27
2023-04-27T08:08:29.953Z,81.48
2023-04-27T08:09:29.929Z,82.56
2023-04-27T08:10:29.907Z,82.26
2023-04-27T08:11:29.880Z,83.37
2023-04-27T08:12:29.855Z,82.66
2023-04-27T08:13:29.880Z,82.21
2023-04-27T08:14:29.808Z,79.88
2023-04-27T08:15:29.797Z,79.57
2023-04-27T08:16:29.785Z,79.77
2023-04-27T08:17:29.785Z,78.11
2023-04-27T08:18:29.721Z,79.84
2023-04-27T08:19:29.685Z,79.53
2023-04-27T08:20:29.649Z,78.17
2023-04-27T08:21:29.628Z,80.21
2023-04-27T08:22:29.599Z,80.98
2023-04-27T08:23:29.581Z,80.37
2023-04-27T08:24:29.550Z,78.81
2023-04-27T08:25:29.525Z,78.00
2023-04-27T08:26:29.501Z,78.27
2023-04-27T08:27:29.475Z,79.18
2023-04-27T08:28:29.457Z,78.53
2023-04-27T08:29:29.555Z,78.64
2023-04-27T08:30:29.401Z,79.04
2023-04-27T08:31:29.443Z,74.98
2023-04-27T08:32:29.392Z,70.86
2023-04-27T08:33:29.333Z,72.55
2023-04-27T08:34:29.315Z,75.29
2023-04-27T08:35:29.277Z,72.14
2023-04-27T08:36:29.250Z,73.16
2023-04-27T08:37:29.234Z,74.85
2023-04-27T08:38:29.199Z,75.22
2023-04-27T08:39:29.182Z,75.32
2023-04-27T08:40:29.158Z,75.32
2023-04-27T08:41:29.132Z,75.43
2023-04-27T08:42:29.105Z,76.37
2023-04-27T08:43:29.081Z,76.40
2023-04-27T08:44:29.054Z,77.89
2023-04-27T08:45:29.068Z,73.73
2023-04-27T08:46:29.066Z,73.80
2023-04-27T08:47:41.864Z,74.21
2023-04-27T08:48:29.052Z,73.02
2023-04-27T08:49:28.937Z,70.45
2023-04-27T08:50:28.911Z,76.85
2023-04-27T08:51:28.883Z,74.92
2023-04-27T08:52:28.859Z,72.75
2023-04-27T08:53:28.838Z,73.12
2023-04-27T08:54:28.828Z,74.65
2023-04-27T08:55:28.793Z,72.08
2023-04-27T08:56:28.771Z,71.70
2023-04-27T08:57:28.741Z,72.01
2023-04-27T08:58:28.720Z,71.84
2023-04-27T08:59:28.693Z,75.70
2023-04-27T09:00:28.668Z,74.74
2023-04-27T09:01:28.725Z,71.88
2023-04-27T09:02:28.652Z,70.76
2023-04-27T09:03:28.711Z,70.32
2023-04-27T09:04:28.732Z,72.08
2023-04-27T09:05:28.578Z,74.92
2023-04-27T09:06:28.601Z,74.88
2023-04-27T09:07:28.687Z,73.16
2023-04-27T09:08:28.474Z,73.02
2023-04-27T09:09:28.458Z,73.02
2023-04-27T09:10:28.424Z,74.21
2023-04-27T09:11:28.403Z,74.77
2023-04-27T09:12:28.379Z,70.62
2023-04-27T09:13:28.354Z,70.83
2023-04-27T09:14:28.329Z,72.41
2023-04-27T09:15:28.313Z,73.73
2023-04-27T09:16:28.503Z,72.61
2023-04-27T09:17:28.341Z,71.20
2023-04-27T09:18:28.235Z,69.24
2023-04-27T09:19:28.213Z,70.62
2023-04-27T09:20:28.192Z,70.32
2023-04-27T09:21:28.167Z,70.73
2023-04-27T09:22:28.179Z,66.07
2023-04-27T09:23:28.122Z,66.47
2023-04-27T09:24:28.092Z,67.89
2023-04-27T09:25:28.067Z,68.63
2023-04-27T09:26:28.047Z,69.78
2023-04-27T09:27:28.024Z,69.51
2023-04-27T09:28:27.999Z,70.12
2023-04-27T09:29:27.973Z,72.68
2023-04-27T09:30:27.948Z,72.99
2023-04-27T09:31:27.970Z,70.45
2023-04-27T09:32:27.914Z,71.00
2023-04-27T09:33:27.894Z,72.82
2023-04-27T09:34:27.853Z,71.60
2023-04-27T09:35:27.841Z,69.68
2023-04-27T09:36:27.809Z,69.84
2023-04-27T09:37:27.784Z,69.61
2023-04-27T09:38:27.764Z,68.36
2023-04-27T09:39:27.745Z,70.76
2023-04-27T09:40:27.716Z,68.33
2023-04-27T09:41:27.687Z,69.44
2023-04-27T09:42:27.668Z,68.70
2023-04-27T09:43:27.638Z,67.15
2023-04-27T09:44:27.613Z,68.30
2023-04-27T09:45:27.588Z,65.56
2023-04-27T09:46:27.642Z,67.79
2023-04-27T09:47:27.558Z,69.31
2023-04-27T09:48:27.542Z,68.50
2023-04-27T09:49:27.590Z,69.07
2023-04-27T09:50:27.477Z,65.81
2023-04-27T09:51:27.448Z,66.72
2023-04-27T09:52:27.421Z,63.58
2023-04-27T09:53:27.402Z,65.16
2023-04-27T09:54:27.385Z,64.83
2023-04-27T09:55:27.354Z,65.64
2023-04-27T09:56:27.329Z,66.41
2023-04-27T09:57:27.305Z,64.79
2023-04-27T09:58:27.284Z,64.56
2023-04-27T09:59:27.278Z,62.64
2023-04-27T10:00:27.236Z,62.40
2023-04-27T10:01:27.243Z,62.98
2023-04-27T10:02:27.216Z,63.58
2023-04-27T10:03:27.328Z,63.58
2023-04-27T10:04:27.254Z,63.68
2023-04-27T10:05:27.212Z,64.97
2023-04-27T10:06:27.111Z,62.64
2023-04-27T10:07:27.070Z,64.43
2023-04-27T10:08:27.047Z,63.90
2023-04-27T10:09:27.028Z,60.57
2023-04-27T10:10:27.007Z,61.44
2023-04-27T10:11:26.977Z,61.01
2023-04-27T10:12:26.971Z,60.98
2023-04-27T10:13:26.931Z,59.70
2023-04-27T10:14:26.907Z,60.21
2023-04-27T10:15:26.895Z,60.88
2023-04-27T10:16:26.903Z,59.20
2023-04-27T10:17:27.133Z,58.80
2023-04-27T10:18:26.816Z,58.06
2023-04-27T10:19:26.804Z,58.97
2023-04-27T10:20:26.769Z,56.15
2023-04-27T10:21:26.770Z,56.68
2023-04-27T10:22:26.733Z,59.47
2023-04-27T10:23:26.730Z,61.46
2023-04-27T10:24:26.680Z,57.85
2023-04-27T10:25:26.662Z,59.49
2023-04-27T10:26:26.678Z,61.39
2023-04-27T10:27:26.634Z,63.21
2023-04-27T10:28:26.601Z,64.26
2023-04-27T10:29:26.572Z,59.41
2023-04-27T10:30:26.569Z,58.80
2023-04-27T10:31:26.586Z,60.52
2023-04-27T10:32:26.518Z,59.28
2023-04-27T10:33:26.479Z,58.37
2023-04-27T10:34:26.460Z,58.98
2023-04-27T10:35:26.438Z,58.54
2023-04-27T10:36:26.419Z,58.34
2023-04-27T10:37:26.422Z,58.89
2023-04-27T10:38:26.370Z,57.01
2023-04-27T10:39:39.623Z,55.26
2023-04-27T10:40:26.325Z,55.74
2023-04-27T10:41:26.305Z,57.03
2023-04-27T10:42:26.280Z,56.55
2023-04-27T10:43:26.265Z,57.15
2023-04-27T10:44:26.235Z,56.35
2023-04-27T10:45:27.457Z,59.37
2023-04-27T10:46:26.213Z,56.35
2023-04-27T10:47:26.214Z,55.91
2023-04-27T10:48:26.146Z,59.14
2023-04-27T10:49:26.127Z,53.55
2023-04-27T10:50:26.105Z,55.87
2023-04-27T10:51:26.091Z,56.85
2023-04-27T10:52:26.058Z,55.94
2023-04-27T10:53:26.060Z,57.05
2023-04-27T10:54:26.016Z,58.23
2023-04-27T10:55:25.996Z,58.26
2023-04-27T10:56:25.973Z,57.05
2023-04-27T10:57:25.951Z,56.48
2023-04-27T10:58:34.632Z,56.04
2023-04-27T10:59:25.904Z,57.05
2023-04-27T11:00:25.890Z,55.84
2023-04-27T11:01:25.956Z,55.64
2023-04-27T11:02:25.938Z,56.55
2023-04-27T11:03:25.933Z,55.14
2023-04-27T11:04:25.810Z,55.94
2023-04-27T11:05:25.770Z,55.97
2023-04-27T11:06:25.748Z,55.92
2023-04-27T11:07:25.748Z,59.78
2023-04-27T11:08:25.755Z,59.28
2023-04-27T11:09:25.707Z,59.15
2023-04-27T11:10:25.706Z,59.45
2023-04-27T11:11:25.640Z,56.20
2023-04-27T11:12:25.617Z,56.40
2023-04-27T11:13:25.665Z,54.68
2023-04-27T11:14:25.570Z,56.20
2023-04-27T11:15:25.549Z,54.89
2023-04-27T11:16:25.587Z,54.96
2023-04-27T11:17:25.522Z,53.75
2023-04-27T11:18:25.478Z,55.06
2023-04-27T11:19:25.463Z,56.30
2023-04-27T11:20:25.436Z,56.40
2023-04-27T11:21:25.412Z,54.00
2023-04-27T11:22:25.396Z,53.90
2023-04-27T11:23:25.368Z,53.22
2023-04-27T11:24:25.341Z,55.94
2023-04-27T11:25:25.337Z,56.76
2023-04-27T11:26:25.309Z,52.74
2023-04-27T11:27:25.333Z,56.81
2023-04-27T11:28:25.255Z,59.21
2023-04-27T11:29:25.227Z,58.20
2023-04-27T11:30:25.206Z,56.15
2023-04-27T11:31:25.210Z,57.06
2023-04-27T11:32:25.214Z,57.26
2023-04-27T11:33:25.143Z,58.27
2023-04-27T11:34:25.108Z,58.58
2023-04-27T11:35:25.100Z,62.82
2023-04-27T11:36:25.066Z,58.34
2023-04-27T11:37:25.047Z,57.06
2023-04-27T11:38:25.073Z,57.16
2023-04-27T11:39:25.154Z,55.94
2023-04-27T11:40:24.972Z,55.24
2023-04-27T11:41:24.977Z,53.72
2023-04-27T11:42:24.943Z,53.22
2023-04-27T11:43:24.902Z,54.13
2023-04-27T11:44:24.878Z,53.02
2023-04-27T11:45:24.855Z,54.03
2023-04-27T11:46:24.863Z,53.34
2023-04-27T11:47:24.821Z,53.52
2023-04-27T11:48:24.783Z,57.34
2023-04-27T11:49:24.759Z,59.33
2023-04-27T11:50:24.741Z,51.25
2023-04-27T11:51:24.721Z,53.98
2023-04-27T11:52:24.689Z,53.55
2023-04-27T11:53:24.668Z,52.09
2023-04-27T11:54:24.650Z,54.79
2023-04-27T11:55:24.641Z,53.88
2023-04-27T11:56:24.596Z,54.79
2023-04-27T11:57:24.602Z,53.34
2023-04-27T11:58:24.550Z,50.50
2023-04-27T11:59:24.529Z,52.09
2023-04-27T12:00:24.502Z,52.59
2023-04-27T12:01:36.699Z,50.27
2023-04-27T12:02:24.555Z,50.05
2023-04-27T12:03:24.632Z,53.38
2023-04-27T12:04:24.607Z,53.75
2023-04-27T12:05:24.509Z,52.82
2023-04-27T12:07:24.343Z,49.49
2023-04-27T12:08:24.319Z,52.54
2023-04-27T12:09:24.298Z,52.34
2023-04-27T12:10:24.276Z,53.55
2023-04-27T12:11:24.259Z,51.13
2023-04-27T12:12:24.233Z,49.99
2023-04-27T12:13:24.224Z,52.82
2023-04-27T12:14:24.181Z,50.93
2023-04-27T12:15:24.158Z,51.84
2023-04-27T12:16:24.177Z,51.33
2023-04-27T12:17:24.159Z,53.05
2023-04-27T12:18:24.090Z,55.11
2023-04-27T12:19:24.071Z,53.63
2023-04-27T12:20:24.050Z,53.80
2023-04-27T12:21:24.023Z,55.62
2023-04-27T12:22:24.002Z,53.17
2023-04-27T12:23:23.978Z,52.67
2023-04-27T12:24:23.957Z,54.99
2023-04-27T12:25:23.933Z,53.45
2023-04-27T12:26:23.912Z,54.28
2023-04-27T12:27:23.889Z,52.24
2023-04-27T12:28:23.865Z,51.93
2023-04-27T12:29:23.870Z,52.80
2023-04-27T12:30:23.824Z,54.61
2023-04-27T12:31:26.892Z,54.38
2023-04-27T12:32:23.774Z,55.96
2023-04-27T12:33:23.806Z,53.72
2023-04-27T12:34:23.732Z,52.69
2023-04-27T12:35:23.711Z,52.74
2023-04-27T12:36:23.709Z,50.43
2023-04-27T12:37:26.237Z,51.29
2023-04-27T12:38:23.657Z,53.30
2023-04-27T12:39:23.620Z,51.97
2023-04-27T12:40:23.605Z,52.14
2023-04-27T12:41:23.572Z,53.55
2023-04-27T12:42:23.561Z,50.23
2023-04-27T12:43:23.534Z,52.87
2023-04-27T12:44:23.510Z,50.89
2023-04-27T12:45:23.534Z,51.49
2023-04-27T12:46:23.487Z,51.99
2023-04-27T12:48:23.461Z,52.24
2023-04-27T12:49:23.404Z,51.01
2023-04-27T12:50:23.379Z,53.09
2023-04-27T12:51:23.363Z,48.88
2023-04-27T12:52:23.338Z,49.30
2023-04-27T12:53:23.320Z,50.31
2023-04-27T12:54:23.292Z,46.89